Bungo Princess — 3FXV8 — position and weather

sailwx.info

Track history (hours):
 
Tides and Currents Weather Stations Pressure Air Temp Water Temp Dewpoint Dewpoint Depression Visibility Wind Speed Wind Dir Waves Ship Positions

Bungo Princess

Last reported at 2017-Feb-09 13:15 UTC. Time now 2017-Feb-25 12:02 UTC.
Position N 31°01' E 122°25'.
Warning: this ship's position is 15 days out of date.

Length 103 m; draft 6.3 m.

Type: Cargo ship. MMSI: 355074054.

Date/timePositionNaut miles runAvg speedWind from/ knotsBaromVisibWave heightAir tempDewpointWater temp
2017-Feb-09 13:15N 31°01' E 122°25'810.7
2017-Feb-09 12:33N 31°02' E 122°17'10 9.5
2017-Feb-09 11:33N 31°04' E 122°06'7 7.0
2017-Feb-09 10:33N 31°06' E 121°58'7 6.5
2017-Feb-09 09:33N 31°10' E 121°52'9 9.0
2017-Feb-09 08:33N 31°16' E 121°45'1010.0
2017-Feb-09 07:33N 31°23' E 121°36'5 2.4
2017-Feb-09 05:25N 31°22' E 121°30'0 0.0
2017-Feb-09 04:28N 31°22' E 121°30'0 0.0
2017-Feb-09 03:25N 31°22' E 121°30'0 0.0
2017-Feb-09 02:13N 31°22' E 121°30'0 0.0
2017-Feb-09 01:07N 31°22' E 121°30'0 0.0
2017-Feb-09 00:31N 31°22' E 121°30'0 0.0
2017-Feb-08 17:25N 31°22' E 121°30'0 0.0
2017-Feb-08 15:25N 31°22' E 121°30'0 0.0
2017-Feb-08 14:07N 31°22' E 121°30'0 0.0
2017-Feb-08 13:25N 31°22' E 121°30'0 0.0
2017-Feb-08 12:22N 31°22' E 121°30'0 0.0
2017-Feb-08 07:19N 31°22' E 121°30'0 0.0
2017-Feb-08 06:31N 31°22' E 121°30'0 0.0
2017-Feb-08 05:04N 31°22' E 121°30'0 0.0
2017-Feb-08 04:31N 31°22' E 121°30'0 0.0
2017-Feb-08 03:31N 31°22' E 121°30'0 0.0
2017-Feb-08 01:22N 31°22' E 121°30'0 0.0
2017-Feb-07 20:07N 31°22' E 121°30'0 0.0
2017-Feb-07 17:09N 31°22' E 121°30'0 0.3
2017-Feb-07 16:33N 31°22' E 121°30'4 4.0
2017-Feb-07 15:33N 31°23' E 121°34'7 6.7
2017-Feb-07 14:33N 31°20' E 121°41'9 8.8
2017-Feb-07 13:33N 31°17' E 121°51'1211.6
2017-Feb-07 12:33N 31°14' E 122°04'1110.7
2017-Feb-07 11:32N 31°08' E 122°15'  
2017-Feb-04 20:08N 33°43' E 132°14'712.5
2017-Feb-04 19:32N 33°46' E 132°22'1211.8
2017-Feb-04 18:33N 33°52' E 132°34'1110.9
2017-Feb-04 17:33N 33°59' E 132°44'10710.6
2017-Feb-04 07:23N 34°33' E 134°47'1112.6
2017-Feb-04 06:31N 34°38' E 134°59'1111.5
2017-Feb-04 05:33N 34°36' E 135°12'1010.0
2017-Feb-04 04:33N 34°39' E 135°24'2 1.3
2017-Feb-04 03:23N 34°39' E 135°26'0 0.0
2017-Feb-04 02:29N 34°39' E 135°26'0 0.0
2017-Feb-04 01:29N 34°39' E 135°26'0 0.0
2017-Feb-04 00:29N 34°39' E 135°26'0 0.0
2017-Feb-03 23:29N 34°39' E 135°26'0 0.0
2017-Feb-03 22:29N 34°39' E 135°26'0 0.0
2017-Feb-03 21:29N 34°39' E 135°26'0 0.0
2017-Feb-03 20:29N 34°39' E 135°26'0 0.0
2017-Feb-03 19:29N 34°39' E 135°26'0 0.0
2017-Feb-03 18:23N 34°39' E 135°26'0 0.0
2017-Feb-03 17:29N 34°39' E 135°26'0 0.0
2017-Feb-03 16:29N 34°39' E 135°26'0 0.0
2017-Feb-03 15:23N 34°39' E 135°26'0 0.0
2017-Feb-03 14:23N 34°39' E 135°26'0 0.0
2017-Feb-03 13:29N 34°39' E 135°26'0 0.0
2017-Feb-03 12:17N 34°39' E 135°26'0 0.0
2017-Feb-03 11:05N 34°39' E 135°26'0 0.0
2017-Feb-03 10:29N 34°39' E 135°26'0 0.0
2017-Feb-03 09:29N 34°39' E 135°26'0 0.0
2017-Feb-03 08:29N 34°39' E 135°26'0 0.0
2017-Feb-03 07:29N 34°39' E 135°26'0 0.0
2017-Feb-03 06:23N 34°39' E 135°26'0 0.0
2017-Feb-03 05:29N 34°39' E 135°26'0 0.0
2017-Feb-03 04:29N 34°39' E 135°26'0 0.0
2017-Feb-03 03:29N 34°39' E 135°26'0 0.0
2017-Feb-03 02:29N 34°39' E 135°26'0 0.0
2017-Feb-03 01:23N 34°39' E 135°26'0 0.0
2017-Feb-03 00:29N 34°39' E 135°26'0 0.0
2017-Feb-02 23:23N 34°39' E 135°26'0 0.0
2017-Feb-02 22:33N 34°39' E 135°26'2 1.9
2017-Feb-02 21:33N 34°38' E 135°24'2 2.1
2017-Feb-02 20:32N 34°37' E 135°22'0 0.0
2017-Feb-02 19:32N 34°37' E 135°22'0 0.0
2017-Feb-02 18:26N 34°37' E 135°22'0 0.0
2017-Feb-02 17:33N 34°37' E 135°22'0 0.0
2017-Feb-02 15:14N 34°37' E 135°22'0 0.0
2017-Feb-02 14:26N 34°37' E 135°22'0 0.0
2017-Feb-02 13:09N 34°37' E 135°22'0 0.0
2017-Feb-02 12:33N 34°37' E 135°22'0 0.1
2017-Feb-02 10:33N 34°37' E 135°22'0 0.0
2017-Feb-02 09:33N 34°37' E 135°22'2 1.8
2017-Feb-02 08:33N 34°37' E 135°24'0 0.4
2017-Feb-02 07:29N 34°38' E 135°25'0 0.0
2017-Feb-02 06:23N 34°38' E 135°25'0 0.0
2017-Feb-02 05:23N 34°38' E 135°25'0 0.0
2017-Feb-02 04:29N 34°38' E 135°25'0 0.0
2017-Feb-02 03:29N 34°38' E 135°25'0 0.0
2017-Feb-02 02:33N 34°38' E 135°25'0 0.0
2017-Feb-02 01:33N 34°38' E 135°25'0 0.0
2017-Feb-02 00:33N 34°38' E 135°25'0 0.0
2017-Feb-01 23:33N 34°38' E 135°25'0 0.0
2017-Feb-01 22:33N 34°38' E 135°25'1 0.7
2017-Feb-01 21:33N 34°38' E 135°24'2 1.5
2017-Feb-01 20:30N 34°37' E 135°22'0 0.1
2017-Feb-01 19:30N 34°37' E 135°22'0 0.0
2017-Feb-01 18:30N 34°37' E 135°22'0 0.0
2017-Feb-01 16:30N 34°37' E 135°22'0 0.0
2017-Feb-01 15:18N 34°37' E 135°22'0 0.0
2017-Feb-01 14:30N 34°37' E 135°22'0 0.0
2017-Feb-01 12:30N 34°37' E 135°22'0 0.0
2017-Feb-01 11:30N 34°37' E 135°22'0 0.0
2017-Feb-01 10:24N 34°37' E 135°22'0 0.0
2017-Feb-01 09:24N 34°37' E 135°22'0 0.0
2017-Feb-01 08:24N 34°37' E 135°22'2 2.7
2017-Feb-01 07:33N 34°36' E 135°20'8 7.6
2017-Feb-01 06:33N 34°34' E 135°11'12710.5
2017-Jan-31 18:28N 33°58' E 132°44'1011.4
2017-Jan-31 17:33N 33°51' E 132°34'1212.0
2017-Jan-31 16:33N 33°45' E 132°22'  
Track history (hours):
 
Tides and Currents Weather Stations Pressure Air Temp Water Temp Dewpoint Dewpoint Depression Visibility Wind Speed Wind Dir Waves Ship Positions

Bungo Princess

Last reported at 2017-Feb-09 13:15 UTC. Time now 2017-Feb-25 12:02 UTC.
Position N 31°01' E 122°25'.
Warning: this ship's position is 15 days out of date.

Length 103 m; draft 6.3 m.

Type: Cargo ship. MMSI: 355074054.

Date/timePositionNaut miles runAvg speedWind from/ knotsBaromVisibWave heightAir tempDewpointWater temp
2017-Feb-09 13:15N 31°01' E 122°25'810.7
2017-Feb-09 12:33N 31°02' E 122°17'10 9.5
2017-Feb-09 11:33N 31°04' E 122°06'7 7.0
2017-Feb-09 10:33N 31°06' E 121°58'7 6.5
2017-Feb-09 09:33N 31°10' E 121°52'9 9.0
2017-Feb-09 08:33N 31°16' E 121°45'1010.0
2017-Feb-09 07:33N 31°23' E 121°36'5 2.4
2017-Feb-09 05:25N 31°22' E 121°30'0 0.0
2017-Feb-09 04:28N 31°22' E 121°30'0 0.0
2017-Feb-09 03:25N 31°22' E 121°30'0 0.0
2017-Feb-09 02:13N 31°22' E 121°30'0 0.0
2017-Feb-09 01:07N 31°22' E 121°30'0 0.0
2017-Feb-09 00:31N 31°22' E 121°30'0 0.0
2017-Feb-08 17:25N 31°22' E 121°30'0 0.0
2017-Feb-08 15:25N 31°22' E 121°30'0 0.0
2017-Feb-08 14:07N 31°22' E 121°30'0 0.0
2017-Feb-08 13:25N 31°22' E 121°30'0 0.0
2017-Feb-08 12:22N 31°22' E 121°30'0 0.0
2017-Feb-08 07:19N 31°22' E 121°30'0 0.0
2017-Feb-08 06:31N 31°22' E 121°30'0 0.0
2017-Feb-08 05:04N 31°22' E 121°30'0 0.0
2017-Feb-08 04:31N 31°22' E 121°30'0 0.0
2017-Feb-08 03:31N 31°22' E 121°30'0 0.0
2017-Feb-08 01:22N 31°22' E 121°30'0 0.0
2017-Feb-07 20:07N 31°22' E 121°30'0 0.0
2017-Feb-07 17:09N 31°22' E 121°30'0 0.3
2017-Feb-07 16:33N 31°22' E 121°30'4 4.0
2017-Feb-07 15:33N 31°23' E 121°34'7 6.7
2017-Feb-07 14:33N 31°20' E 121°41'9 8.8
2017-Feb-07 13:33N 31°17' E 121°51'1211.6
2017-Feb-07 12:33N 31°14' E 122°04'1110.7
2017-Feb-07 11:32N 31°08' E 122°15'  
2017-Feb-04 20:08N 33°43' E 132°14'712.5
2017-Feb-04 19:32N 33°46' E 132°22'1211.8
2017-Feb-04 18:33N 33°52' E 132°34'1110.9
2017-Feb-04 17:33N 33°59' E 132°44'10710.6
2017-Feb-04 07:23N 34°33' E 134°47'1112.6
2017-Feb-04 06:31N 34°38' E 134°59'1111.5
2017-Feb-04 05:33N 34°36' E 135°12'1010.0
2017-Feb-04 04:33N 34°39' E 135°24'2 1.3
2017-Feb-04 03:23N 34°39' E 135°26'0 0.0
2017-Feb-04 02:29N 34°39' E 135°26'0 0.0
2017-Feb-04 01:29N 34°39' E 135°26'0 0.0
2017-Feb-04 00:29N 34°39' E 135°26'0 0.0
2017-Feb-03 23:29N 34°39' E 135°26'0 0.0
2017-Feb-03 22:29N 34°39' E 135°26'0 0.0
2017-Feb-03 21:29N 34°39' E 135°26'0 0.0
2017-Feb-03 20:29N 34°39' E 135°26'0 0.0
2017-Feb-03 19:29N 34°39' E 135°26'0 0.0
2017-Feb-03 18:23N 34°39' E 135°26'0 0.0
2017-Feb-03 17:29N 34°39' E 135°26'0 0.0
2017-Feb-03 16:29N 34°39' E 135°26'0 0.0
2017-Feb-03 15:23N 34°39' E 135°26'0 0.0
2017-Feb-03 14:23N 34°39' E 135°26'0 0.0
2017-Feb-03 13:29N 34°39' E 135°26'0 0.0
2017-Feb-03 12:17N 34°39' E 135°26'0 0.0
2017-Feb-03 11:05N 34°39' E 135°26'0 0.0
2017-Feb-03 10:29N 34°39' E 135°26'0 0.0
2017-Feb-03 09:29N 34°39' E 135°26'0 0.0
2017-Feb-03 08:29N 34°39' E 135°26'0 0.0
2017-Feb-03 07:29N 34°39' E 135°26'0 0.0
2017-Feb-03 06:23N 34°39' E 135°26'0 0.0
2017-Feb-03 05:29N 34°39' E 135°26'0 0.0
2017-Feb-03 04:29N 34°39' E 135°26'0 0.0
2017-Feb-03 03:29N 34°39' E 135°26'0 0.0
2017-Feb-03 02:29N 34°39' E 135°26'0 0.0
2017-Feb-03 01:23N 34°39' E 135°26'0 0.0
2017-Feb-03 00:29N 34°39' E 135°26'0 0.0
2017-Feb-02 23:23N 34°39' E 135°26'0 0.0
2017-Feb-02 22:33N 34°39' E 135°26'2 1.9
2017-Feb-02 21:33N 34°38' E 135°24'2 2.1
2017-Feb-02 20:32N 34°37' E 135°22'0 0.0
2017-Feb-02 19:32N 34°37' E 135°22'0 0.0
2017-Feb-02 18:26N 34°37' E 135°22'0 0.0
2017-Feb-02 17:33N 34°37' E 135°22'0 0.0
2017-Feb-02 15:14N 34°37' E 135°22'0 0.0
2017-Feb-02 14:26N 34°37' E 135°22'0 0.0
2017-Feb-02 13:09N 34°37' E 135°22'0 0.0
2017-Feb-02 12:33N 34°37' E 135°22'0 0.1
2017-Feb-02 10:33N 34°37' E 135°22'0 0.0
2017-Feb-02 09:33N 34°37' E 135°22'2 1.8
2017-Feb-02 08:33N 34°37' E 135°24'0 0.4
2017-Feb-02 07:29N 34°38' E 135°25'0 0.0
2017-Feb-02 06:23N 34°38' E 135°25'0 0.0
2017-Feb-02 05:23N 34°38' E 135°25'0 0.0
2017-Feb-02 04:29N 34°38' E 135°25'0 0.0
2017-Feb-02 03:29N 34°38' E 135°25'0 0.0
2017-Feb-02 02:33N 34°38' E 135°25'0 0.0
2017-Feb-02 01:33N 34°38' E 135°25'0 0.0
2017-Feb-02 00:33N 34°38' E 135°25'0 0.0
2017-Feb-01 23:33N 34°38' E 135°25'0 0.0
2017-Feb-01 22:33N 34°38' E 135°25'1 0.7
2017-Feb-01 21:33N 34°38' E 135°24'2 1.5
2017-Feb-01 20:30N 34°37' E 135°22'0 0.1
2017-Feb-01 19:30N 34°37' E 135°22'0 0.0
2017-Feb-01 18:30N 34°37' E 135°22'0 0.0
2017-Feb-01 16:30N 34°37' E 135°22'0 0.0
2017-Feb-01 15:18N 34°37' E 135°22'0 0.0
2017-Feb-01 14:30N 34°37' E 135°22'0 0.0
2017-Feb-01 12:30N 34°37' E 135°22'0 0.0
2017-Feb-01 11:30N 34°37' E 135°22'0 0.0
2017-Feb-01 10:24N 34°37' E 135°22'0 0.0
2017-Feb-01 09:24N 34°37' E 135°22'0 0.0
2017-Feb-01 08:24N 34°37' E 135°22'2 2.7
2017-Feb-01 07:33N 34°36' E 135°20'8 7.6
2017-Feb-01 06:33N 34°34' E 135°11'12710.5
2017-Jan-31 18:28N 33°58' E 132°44'1011.4
2017-Jan-31 17:33N 33°51' E 132°34'1212.0
2017-Jan-31 16:33N 33°45' E 132°22'  

Dump ship's entire track history